Share

Blythe, CA

10:31 PM PDT on April 24, 2014 (GMT -0700)
Blythe (KBLH) Elev 397 ft | 33.62 °N, 114.72 °W | Change Station
Active Advisory: Fire Weather Warning

Current weather conditions updated 39 minutes ago

Clear
Clear
80 °F
Feels Like 80 °F
N
7
Wind Variable Wind from SW
Sunrise 5:57 AM
Sunset 7:16 PM
Moon Waning Crescent

Tomorrow is forecast to be nearly the same temperature as today. Plenty of sun.

Pressure 29.78 in
Visibility 10.0 miles
Clouds Clear
Dew Point 24 °F
Humidity 13%
Rainfall 0.00 in
Snow Depth Not available.
UV 0 out of 16
Pollen 6.40 out of 12
Air Quality Not available.
Flu Activity Sporadic
METAR KBLH 250452Z AUTO 22006KT 10SM CLR 27/M04 A2980 RMK AO2 SLP084 T02671044

More Conditions Fewer Conditions

Pressure 29.78 in
Visibility 10.0 miles
Clouds Clear
Dew Point 24 °F
Humidity 13%
Rainfall 0.00 in
Snow Depth Not available.
UV 0 out of 16
Pollen 6.40 out of 12
Air Quality Not available.
Flu Activity Sporadic
METAR KBLH 250452Z AUTO 22006KT 10SM CLR 27/M04 A2980 RMK AO2 SLP084 T02671044

More Conditions Fewer Conditions

10-Day Weather Forecast

Almanac

Astronomy

Apr. 24, 2014 Rise Set
Actual Time 5:57 AM PDT 7:16 PM PDT
Civil Twilight 5:31 AM PDT 7:42 PM PDT
Nautical Twilight 5:00 AM PDT 8:14 PM PDT
Astronomical Twilight 4:28 AM PDT 8:46 PM PDT
Moon 2:56 AM PDT (4/24) 2:50 PM PDT (4/24)
Length of Visible Light 14h 11m
Length of Day
13h 19m
Tomorrow will be 1m 53s longer.
Waning Crescent, 19% of the Moon is Illuminated
Apr 25
Waning Crescent
Apr 29
New
May 6
First Quarter
May 14
Full
May 21
Last Quarter

Yesterday's Extremes

State Highs State Lows

Community

  • Deer in evening light
    Deer in evening light
  • Critter
    Critter
  • Jone Runs Falls
    Jone Runs Falls
  • Easter in Shenandoah National Park
    Easter in Shenandoah National Park
  • Sunset at Apalachicola Bay, Florida
    Sunset at Apalachicola Bay, Florida

WunderPhotos

Upload Photos

1,704,861 photos uploaded!

WunderBlogs® & News

Nearby

Air Quality

  Air Quality AQ Index Pollutant
Friday Good
OZONE
Friday Good
PM2.5
Friday Good
CO
Friday Good
NO2

Snow Depth

Station Depth Elevation
Virginia Lakes Ridge 14 in 9200 ft
Leavitt Lake 64 in 9400 ft
Leavitt Meadows 1 in 7200 ft
Sonora Pass 20 in 8800 ft
Summit Meadow 1 in 9122 ft

Coastal Water Temperatures

Place Temperature
No Stations Reporting

Earthquake Activity

City Distance Mag. Time & Date
Progreso, Mexico 89 miles 3.1 10:44 AM PDT
2014-04-18
Progreso, Mexico 89 miles 2.9 10:32 AM PDT
2014-04-18
Maneadero, Mexico 153 miles 3.0 12:11 AM PDT
2014-04-18
Minimum magnitude displayed is 2.5.

Nearby Weather Stations

Station Location Temp. Heat Index Dew Point Humidity Wind Precip. Elev Updated Type
Apache Loop, Ehrenberg, AZ 74.8 °F 76 °F 34 °F 23% SW  at  1.0 mph 0.00 in / hr 292 ft 10:31 PM MST Rapid Fire

Show More Stations Show Fewer Stations

What do you think?

We're not finished. Please let us know what you like, what you don't like, and what you are still missing.